SHMÚ vydal meteorologické výstrahy na Nízke teplotyVietor na horáchSnehové jazyky a záveje Zobraziť výstrahy

TAF

Letisková predpoveď TAF

Informácie o správe TAF

18.01.2021 - 14:00 UTC

TAF LZPP 181400Z 1815/1900 VRB02KT 9999 BKN025 OVC080
    TEMPO 1817/1900 4000 -SN BR SCT005 BKN014 OVC022=
TAF LZZI 181400Z 1815/1900 11005KT CAVOK
    BECMG 1816/1818 9999 BKN025 OVC080
    TEMPO 1818/1900 2500 -SN BR SCT005 BKN012 OVC020=

18.01.2021 - 11:00 UTC

TAF LZIB 181100Z 1812/1912 25007KT 9999 BKN030
    BECMG 1813/1815 -SN FEW010 BKN020
    TEMPO 1823/1906 2800 -SNRA BR BKN008 BKN017
    BECMG 1906/1908 FEW020=
TAF LZKZ 181100Z 1812/1912 VRB02KT 9999 FEW020
    BECMG 1812/1814 20005KT
    PROB40 TEMPO 1900/1906 6000 -SN FEW014 BKN020=
TAF LZTT 181100Z 1812/1912 VRB02KT 9999 FEW020
    BECMG 1818/1820 SCT015 BKN060
    TEMPO 1822/1906 5000 -SN SCT009 BKN030=

18.01.2021 - 11:00 UTC

TAF COR LZTT 181101Z 1812/1912 VRB02KT CAVOK
    BECMG 1818/1820 SCT015 BKN050
    TEMPO 1821/1907 5000 -SN SCT007 BKN030
    PROB40 TEMPO 1901/1906 2500 -SN BR BKN002
    BECMG 1904/1906 22006KT=

18.01.2021 - 11:00 UTC

TAF LZPP 181100Z 1812/1821 01007KT CAVOK
    BECMG 1815/1817 BKN025 OVC080
    TEMPO 1817/1821 3000 -SN BKN014 OVC022=
TAF LZZI 181100Z 1812/1821 11005KT CAVOK
    BECMG 1816/1818 9999 BKN025 OVC080
    TEMPO 1818/1821 2500 SN BKN012 OVC020=

18.01.2021 - 08:00 UTC

TAF LZPP 180800Z 1809/1818 01007KT 9999 SCT030
    BECMG 1815/1817 BKN025 OVC080
    TEMPO 1816/1818 3000 -SN BKN014 OVC025=
TAF LZZI 180800Z 1809/1818 11005KT CAVOK
    BECMG 1809/1811 9999 SCT030=

18.01.2021 - 05:00 UTC

TAF LZIB 180500Z 1806/1906 VRB02KT 9999 BKN033
    BECMG 1808/1810 25007KT
    BECMG 1813/1815 6000 -SN SCT020 BKN050
    TEMPO 1816/1821 2000 SN SCT007 OVC015
    TEMPO 1900/1906 3000 -SN BR SCT010 BKN027=
TAF LZKZ 180500Z 1806/1906 02008KT 9999 OVC015
    PROB30 TEMPO 1806/1808 -SN
    BECMG 1809/1811 BKN025
    BECMG 1812/1814 21005KT
    BECMG 1818/1820 SCT030 BKN070
    TEMPO 1900/1906 6000 -SN FEW014 BKN032=
TAF LZTT 180500Z 1806/1906 VRB02KT 9999 BKN015
    TEMPO 1806/1809 6000 -SN BKN007
    BECMG 1810/1812 SCT020
    BECMG 1818/1820 SCT015 BKN060
    TEMPO 1822/1906 5000 -SN SCT009 BKN030=

18.01.2021 - 05:00 UTC

TAF LZPP 180500Z 1806/1815 01005KT CAVOK
    TEMPO 1806/1808 4500 BR NSC
    BECMG 1808/1810 9999 SCT030 SCT080
    TEMPO 1813/1815 3000 -SN BKN014 OVC025=
TAF LZZI 180500Z 1806/1815 11005KT 7000 NSC
    TEMPO 1806/1808 3000 BR
    PROB30 TEMPO 1806/1807 1200 BR
    BECMG 1809/1811 9999 FEW030 SCT080=

18.01.2021 - 02:00 UTC

TAF LZZI 180200Z 1803/1812 VRB02KT 6000 NSC
    TEMPO 1803/1806 3000 BR
    PROB30 TEMPO 1805/1807 1200 BR
    BECMG 1807/1809 9999 FEW030 SCT080=

skok na menu ↑


skok na začiatok stránky ↑